Time;durP1;ratioP1;P1;durP2;ratioP2;P2;SDS_P1;SDS_P2;PMS_P1;PMS_P2;Temp;Humidity;BMP_temperature;BMP_pressure;BME280_temperature;BME280_humidity;BME280_pressure;Samples;Min_cycle;Max_cycle;Signal;HPM_P1;HPM_P2
2022/10/17 00:00:19;;;;;;;8.98;4.00;;;15.80;93.30;;;;;;5069703;28;20767;-56
2022/10/17 00:02:45;;;;;;;8.73;4.40;;;15.70;54.10;;;;;;5070612;28;20403;-56
2022/10/17 00:05:11;;;;;;;10.17;4.00;;;15.70;59.00;;;;;;5070309;28;20475;-56
2022/10/17 00:07:36;;;;;;;11.70;4.90;;;15.60;99.90;;;;;;5070670;28;20412;-56
2022/10/17 00:10:03;;;;;;;8.38;4.38;;;15.60;99.90;;;;;;5052873;28;20430;-56
2022/10/17 00:12:29;;;;;;;9.33;4.10;;;15.60;91.90;;;;;;5070109;28;20474;-56
2022/10/17 00:14:54;;;;;;;13.32;4.60;;;15.60;99.10;;;;;;5070876;28;20471;-56
2022/10/17 00:17:20;;;;;;;10.20;3.85;;;15.60;99.90;;;;;;5070331;28;20422;-56
2022/10/17 00:19:45;;;;;;;8.10;3.90;;;15.60;97.00;;;;;;5070695;28;20379;-56
2022/10/17 00:22:12;;;;;;;10.63;4.20;;;15.70;94.10;;;;;;5070001;28;20370;-56
2022/10/17 00:24:38;;;;;;;8.40;4.00;;;15.70;54.80;;;;;;5070264;28;20730;-56
2022/10/17 00:27:03;;;;;;;9.77;3.80;;;15.70;71.50;;;;;;5070370;28;20425;-56
2022/10/17 00:29:29;;;;;;;9.38;4.22;;;15.70;78.50;;;;;;5071757;28;20541;-56
2022/10/17 00:31:56;;;;;;;8.30;3.70;;;15.70;21.80;;;;;;5090494;28;20409;-56
2022/10/17 00:34:22;;;;;;;8.55;3.53;;;15.80;1.00;;;;;;5089672;28;20374;-56
2022/10/17 00:36:47;;;;;;;8.27;3.70;;;15.90;1.00;;;;;;5090561;28;20440;-56
2022/10/17 00:39:13;;;;;;;9.75;3.90;;;15.90;1.00;;;;;;5089969;28;20430;-56
2022/10/17 00:41:39;;;;;;;11.70;3.90;;;16.00;1.00;;;;;;5090765;28;20904;-56
2022/10/17 00:44:30;;;;;;;10.73;3.80;;;16.00;1.00;;;;;;5090313;28;20378;-57
2022/10/17 00:46:57;;;;;;;11.30;3.83;;;16.00;1.00;;;;;;5090109;28;20485;-56
2022/10/17 00:49:26;;;;;;;8.48;3.33;;;15.90;1.00;;;;;;5089406;28;20375;-56
2022/10/17 00:51:54;;;;;;;10.07;3.50;;;15.90;1.00;;;;;;5090393;28;20870;-56
2022/10/17 00:54:27;;;;;;;12.30;3.88;;;15.80;1.00;;;;;;5089283;28;20743;-56
2022/10/17 00:56:54;;;;;;;7.90;3.60;;;15.80;1.00;;;;;;5090426;28;20385;-56
2022/10/17 00:59:21;;;;;;;8.65;3.50;;;15.80;1.00;;;;;;5089951;28;20415;-56
2022/10/17 01:02:00;;;;;;;6.88;3.25;;;15.70;1.00;;;;;;5090222;28;20472;-56
2022/10/17 01:04:26;;;;;;;7.90;3.42;;;15.60;1.00;;;;;;5089529;28;20378;-56
2022/10/17 01:06:52;;;;;;;8.30;3.33;;;15.60;1.00;;;;;;5090574;28;20409;-56
2022/10/17 01:09:17;;;;;;;9.55;3.60;;;15.70;1.00;;;;;;5089699;28;20378;-56
2022/10/17 01:12:14;;;;;;;8.90;3.45;;;15.50;1.00;;;;;;5089929;28;20464;-56
2022/10/17 01:14:42;;;;;;;8.10;3.70;;;15.60;1.00;;;;;;5090255;28;20386;-56
2022/10/17 01:17:18;;;;;;;6.80;3.20;;;15.50;1.00;;;;;;5089771;28;20397;-57
2022/10/17 01:20:02;;;;;;;6.50;2.80;;;15.50;1.00;;;;;;5089852;28;20856;-56
2022/10/17 01:22:46;;;;;;;6.53;3.03;;;15.40;1.00;;;;;;5089285;28;20370;-57
2022/10/17 01:25:44;;;;;;;6.40;2.90;;;15.30;1.00;;;;;;5089738;28;20378;-57
2022/10/17 01:28:29;;;;;;;6.45;2.70;;;15.40;1.00;;;;;;5048352;28;20857;-56
2022/10/17 01:31:03;;;;;;;6.50;3.00;;;15.20;1.00;;;;;;5089779;28;20394;-56
2022/10/17 01:33:58;;;;;;;8.20;3.17;;;15.30;1.00;;;;;;5089570;28;20375;-56
2022/10/17 01:36:38;;;;;;;6.70;3.28;;;15.30;1.00;;;;;;5088889;28;20382;-56
2022/10/17 01:39:11;;;;;;;6.55;3.10;;;15.20;1.00;;;;;;5089751;28;20366;-55
2022/10/17 01:41:41;;;;;;;8.00;3.20;;;15.20;1.00;;;;;;5089754;28;20777;-56
2022/10/17 01:44:14;;;;;;;7.70;3.20;;;15.10;1.00;;;;;;5089074;28;20473;-57
2022/10/17 01:46:45;;;;;;;9.02;3.00;;;15.00;1.00;;;;;;5089402;28;20525;-56
2022/10/17 01:49:14;;;;;;;7.30;2.90;;;15.10;1.00;;;;;;5071200;28;20477;-56
2022/10/17 01:51:45;;;;;;;6.25;2.67;;;15.20;1.00;;;;;;5089971;28;20416;-55
2022/10/17 01:54:26;;;;;;;7.28;2.80;;;15.20;1.00;;;;;;5089116;28;20739;-58
2022/10/17 01:56:57;;;;;;;8.95;3.10;;;15.30;1.00;;;;;;5089304;28;20382;-58
2022/10/17 01:59:30;;;;;;;7.77;3.00;;;15.30;1.00;;;;;;5088973;28;20388;-58
2022/10/17 02:01:58;;;;;;;9.20;2.90;;;15.40;1.00;;;;;;5089239;28;20386;-56
2022/10/17 02:04:24;;;;;;;6.88;2.60;;;15.50;1.00;;;;;;5088883;28;20401;-56
2022/10/17 02:06:50;;;;;;;12.30;3.00;;;15.40;1.00;;;;;;5089224;28;20406;-56
2022/10/17 02:09:21;;;;;;;7.60;3.10;;;15.50;1.00;;;;;;5089294;28;20865;-56
2022/10/17 02:11:58;;;;;;;7.78;3.10;;;15.50;1.00;;;;;;5089894;28;20457;-56
2022/10/17 02:14:43;;;;;;;8.85;2.70;;;15.60;1.00;;;;;;5088798;28;20378;-56
2022/10/17 02:17:25;;;;;;;6.63;2.55;;;15.60;1.00;;;;;;5089156;28;20389;-57
2022/10/17 02:20:24;;;;;;;7.80;2.60;;;15.60;1.00;;;;;;5090094;28;20699;-56
2022/10/17 02:23:05;;;;;;;6.70;2.35;;;15.70;1.00;;;;;;5089364;28;20390;-57
2022/10/17 02:25:43;;;;;;;6.85;3.00;;;15.70;99.90;;;;;;5091889;28;20409;-56
2022/10/17 02:28:20;;;;;;;8.30;2.63;;;15.70;99.90;;;;;;5092584;28;20449;-58
2022/10/17 02:30:53;;;;;;;6.30;2.50;;;15.70;99.90;;;;;;5093004;28;20723;-56
2022/10/17 02:33:30;;;;;;;8.52;2.90;;;15.80;99.90;;;;;;5072084;28;20408;-56
2022/10/17 02:36:02;;;;;;;8.30;2.58;;;15.80;99.90;;;;;;5073105;28;20420;-56
2022/10/17 02:38:30;;;;;;;6.50;2.50;;;15.90;99.90;;;;;;5072103;28;20383;-57
2022/10/17 02:40:56;;;;;;;7.20;2.30;;;15.90;99.90;;;;;;5072713;28;20813;-57
2022/10/17 02:43:23;;;;;;;7.82;2.80;;;15.80;99.90;;;;;;5071931;28;20418;-57
2022/10/17 02:45:49;;;;;;;6.70;2.43;;;15.80;99.90;;;;;;5072963;28;20415;-56
2022/10/17 02:48:35;;;;;;;7.70;2.40;;;15.90;99.90;;;;;;5071754;28;20391;-57
2022/10/17 02:51:06;;;;;;;7.97;2.83;;;15.70;99.90;;;;;;5072508;28;20872;-57
2022/10/17 02:53:44;;;;;;;7.80;2.28;;;15.60;99.90;;;;;;5071346;28;20868;-57
2022/10/17 02:56:16;;;;;;;7.13;2.35;;;15.50;99.90;;;;;;5071507;28;20384;-58
2022/10/17 02:58:45;;;;;;;7.30;2.60;;;15.50;99.90;;;;;;5072600;28;20364;-57
2022/10/17 03:01:12;;;;;;;6.65;2.70;;;15.40;99.90;;;;;;5071538;28;20388;-58
2022/10/17 03:03:38;;;;;;;7.18;2.50;;;15.30;99.90;;;;;;5072171;28;20380;-55
2022/10/17 03:06:03;;;;;;;6.00;2.50;;;15.30;1.00;;;;;;5071753;28;20472;-55
2022/10/17 03:08:29;;;;;;;8.10;2.90;;;15.20;1.00;;;;;;5071374;28;20455;-56
2022/10/17 03:10:54;;;;;;;8.60;2.70;;;15.30;1.00;;;;;;5071865;28;20436;-56
2022/10/17 03:13:20;;;;;;;8.03;2.67;;;15.30;1.00;;;;;;5070865;28;20403;-55
2022/10/17 03:15:46;;;;;;;7.68;3.28;;;15.30;1.00;;;;;;5072232;28;20848;-55
2022/10/17 03:18:12;;;;;;;7.20;3.60;;;15.20;99.90;;;;;;5070935;28;20383;-56
2022/10/17 03:20:37;;;;;;;7.70;3.15;;;15.10;1.00;;;;;;5070424;28;20407;-56
2022/10/17 03:23:03;;;;;;;7.33;3.47;;;14.90;1.00;;;;;;5071472;28;20513;-56
2022/10/17 03:25:29;;;;;;;9.07;3.37;;;14.80;1.00;;;;;;5071444;28;20430;-55
2022/10/17 03:27:58;;;;;;;7.82;3.30;;;14.70;1.00;;;;;;5071580;28;20360;-55
2022/10/17 03:30:23;;;;;;;12.17;3.60;;;14.60;1.00;;;;;;5068533;28;20404;-56
2022/10/17 03:32:49;;;;;;;11.30;3.65;;;14.60;1.00;;;;;;5087116;28;20414;-55
2022/10/17 03:35:14;;;;;;;9.00;3.70;;;14.50;1.00;;;;;;5090026;28;20432;-56
2022/10/17 03:37:40;;;;;;;11.80;3.73;;;14.50;1.00;;;;;;5091597;28;20370;-55
2022/10/17 03:40:06;;;;;;;10.30;3.58;;;14.40;1.00;;;;;;5091149;28;20389;-55
2022/10/17 03:42:31;;;;;;;8.90;3.17;;;14.30;1.00;;;;;;5089328;28;20405;-55
2022/10/17 03:44:57;;;;;;;9.20;3.65;;;14.20;1.00;;;;;;5089595;28;20863;-55
2022/10/17 03:47:23;;;;;;;9.20;3.00;;;14.10;35.40;;;;;;5088936;28;20449;-55
2022/10/17 03:49:48;;;;;;;9.80;3.30;;;14.10;48.90;;;;;;5086227;28;20381;-55
2022/10/17 03:52:14;;;;;;;8.95;3.60;;;14.00;58.10;;;;;;5089778;28;20378;-56
2022/10/17 03:54:40;;;;;;;8.73;3.27;;;14.00;96.40;;;;;;5091129;28;20831;-55
2022/10/17 03:57:05;;;;;;;9.10;3.25;;;13.90;99.90;;;;;;5090675;28;20378;-55
2022/10/17 03:59:31;;;;;;;13.45;3.70;;;13.90;99.90;;;;;;5089743;28;20371;-55
2022/10/17 04:01:56;;;;;;;6.53;3.37;;;13.90;99.90;;;;;;5090881;28;21169;-55
2022/10/17 04:04:22;;;;;;;9.27;3.65;;;13.80;99.90;;;;;;5089820;28;20390;-55
2022/10/17 04:06:48;;;;;;;9.00;3.20;;;13.90;99.90;;;;;;5090707;28;20406;-55
2022/10/17 04:09:13;;;;;;;9.23;3.20;;;13.80;99.90;;;;;;5089740;28;20755;-55
2022/10/17 04:11:39;;;;;;;7.57;2.95;;;13.80;99.90;;;;;;5090277;28;20417;-56
2022/10/17 04:14:05;;;;;;;8.67;3.43;;;13.80;99.90;;;;;;5090463;28;20389;-55
2022/10/17 04:16:30;;;;;;;10.77;3.53;;;13.90;99.90;;;;;;5089880;28;20388;-55
2022/10/17 04:18:58;;;;;;;8.20;3.50;;;13.90;99.90;;;;;;5090385;28;20522;-56
2022/10/17 04:21:27;;;;;;;9.70;3.30;;;13.90;99.90;;;;;;5089695;28;20448;-55
2022/10/17 04:23:58;;;;;;;7.85;3.53;;;14.00;99.90;;;;;;5080018;28;20849;-55
2022/10/17 04:26:24;;;;;;;7.72;3.65;;;14.00;99.90;;;;;;5069931;28;20468;-55
2022/10/17 04:28:50;;;;;;;7.80;3.80;;;14.00;99.90;;;;;;5086647;28;20394;-55
2022/10/17 04:31:17;;;;;;;7.70;3.50;;;14.00;99.90;;;;;;5089691;28;20835;-55
2022/10/17 04:33:45;;;;;;;9.30;3.50;;;14.10;99.90;;;;;;5088290;28;20937;-55
2022/10/17 04:36:13;;;;;;;8.30;3.30;;;14.10;99.90;;;;;;5073017;28;20455;-57
2022/10/17 04:38:39;;;;;;;10.57;3.60;;;14.30;99.90;;;;;;5079633;28;20818;-55
2022/10/17 04:41:06;;;;;;;6.30;2.83;;;14.30;99.90;;;;;;5079392;28;20380;-56
2022/10/17 04:43:34;;;;;;;10.70;3.30;;;14.30;99.90;;;;;;5098344;28;20416;-55
2022/10/17 04:46:02;;;;;;;7.65;3.70;;;14.30;99.90;;;;;;5087810;28;20467;-55
2022/10/17 04:48:28;;;;;;;7.35;3.30;;;14.40;99.90;;;;;;5090547;28;20769;-55
2022/10/17 04:51:01;;;;;;;7.10;3.50;;;14.40;95.00;;;;;;5104964;28;20385;-55
2022/10/17 04:53:29;;;;;;;7.93;3.28;;;14.40;64.70;;;;;;5100073;28;20375;-55
2022/10/17 04:55:55;;;;;;;7.82;3.20;;;14.50;32.50;;;;;;5092387;28;20396;-55
2022/10/17 04:58:21;;;;;;;11.67;3.43;;;14.40;7.10;;;;;;5087042;28;20386;-55
2022/10/17 05:00:46;;;;;;;9.25;3.90;;;14.40;21.40;;;;;;5083897;28;20394;-55
2022/10/17 05:03:12;;;;;;;8.90;4.00;;;14.40;33.60;;;;;;5083811;28;20755;-57
2022/10/17 05:05:39;;;;;;;12.02;4.60;;;14.40;7.90;;;;;;5098378;28;20408;-55
2022/10/17 05:08:06;;;;;;;11.00;4.80;;;14.40;3.90;;;;;;5086696;28;20392;-55
2022/10/17 05:10:43;;;;;;;9.32;3.88;;;14.40;1.00;;;;;;5088980;28;20450;-55
2022/10/17 05:13:09;;;;;;;8.70;3.63;;;14.40;7.10;;;;;;5096844;28;20388;-55
2022/10/17 05:15:36;;;;;;;7.68;3.65;;;14.30;20.40;;;;;;5098620;28;20398;-55
2022/10/17 05:18:03;;;;;;;7.93;3.15;;;14.40;39.60;;;;;;5098348;28;20940;-55
2022/10/17 05:20:29;;;;;;;10.52;3.20;;;14.40;50.10;;;;;;5100301;28;20647;-55
2022/10/17 05:22:55;;;;;;;8.90;3.72;;;14.40;38.50;;;;;;5090322;28;20851;-55
2022/10/17 05:25:20;;;;;;;10.85;3.85;;;14.50;23.10;;;;;;5081265;28;20421;-55
2022/10/17 05:27:46;;;;;;;8.40;3.50;;;14.60;1.00;;;;;;5077930;28;20860;-55
2022/10/17 05:30:12;;;;;;;7.97;3.53;;;14.60;1.00;;;;;;5069321;28;20496;-56
2022/10/17 05:32:37;;;;;;;10.70;3.50;;;14.60;1.00;;;;;;5087699;28;20398;-56
2022/10/17 05:35:05;;;;;;;10.15;4.20;;;14.70;1.00;;;;;;5084493;28;20456;-55
2022/10/17 05:37:30;;;;;;;9.25;3.83;;;14.60;1.00;;;;;;5087829;28;20390;-54
2022/10/17 05:39:56;;;;;;;9.67;4.30;;;14.50;1.00;;;;;;5088787;28;20366;-56
2022/10/17 05:42:23;;;;;;;10.07;4.00;;;14.50;23.30;;;;;;5089880;28;20461;-55
2022/10/17 05:44:48;;;;;;;11.77;4.30;;;14.30;44.10;;;;;;5087411;28;20485;-55
2022/10/17 05:47:14;;;;;;;9.33;3.77;;;14.30;99.90;;;;;;5089130;28;20814;-55
2022/10/17 05:49:40;;;;;;;8.25;3.88;;;14.20;99.90;;;;;;5088923;28;20389;-55
2022/10/17 05:52:06;;;;;;;8.70;3.80;;;14.10;99.90;;;;;;5089251;28;20673;-55
2022/10/17 05:54:31;;;;;;;10.43;3.88;;;14.20;99.90;;;;;;5089128;28;20421;-55
2022/10/17 05:56:57;;;;;;;9.50;4.20;;;14.30;99.90;;;;;;5089934;28;20427;-55
2022/10/17 05:59:26;;;;;;;8.85;3.50;;;14.20;99.90;;;;;;5090757;28;20432;-55
2022/10/17 06:01:53;;;;;;;10.45;4.13;;;14.10;99.90;;;;;;5092984;28;20395;-56
2022/10/17 06:04:18;;;;;;;9.75;4.30;;;14.20;99.90;;;;;;5088781;28;20408;-56
2022/10/17 06:06:44;;;;;;;9.20;3.90;;;14.20;99.90;;;;;;5090060;28;20492;-55
2022/10/17 06:09:10;;;;;;;11.07;3.60;;;14.20;99.90;;;;;;5093162;28;20400;-56
2022/10/17 06:11:36;;;;;;;8.13;4.00;;;14.10;99.90;;;;;;5092185;28;20396;-55
2022/10/17 06:14:02;;;;;;;9.10;4.18;;;14.10;99.90;;;;;;5092903;28;20378;-55
2022/10/17 06:16:27;;;;;;;11.10;4.50;;;14.10;99.90;;;;;;5092236;28;20379;-55
2022/10/17 06:18:53;;;;;;;12.43;4.00;;;14.10;99.90;;;;;;5093250;28;20844;-55
2022/10/17 06:21:21;;;;;;;9.73;4.67;;;14.00;99.90;;;;;;5092158;28;20882;-55
2022/10/17 06:23:47;;;;;;;9.07;4.57;;;14.10;99.90;;;;;;5092650;28;20378;-55
2022/10/17 06:26:13;;;;;;;8.97;4.00;;;14.10;99.90;;;;;;5092306;28;20410;-57
2022/10/17 06:28:39;;;;;;;11.35;4.43;;;14.30;99.90;;;;;;5092867;28;20382;-55
2022/10/17 06:31:11;;;;;;;10.70;4.43;;;14.30;99.90;;;;;;5092701;28;21017;-56
2022/10/17 06:33:36;;;;;;;11.50;4.72;;;14.30;99.90;;;;;;5092230;28;20416;-55
2022/10/17 06:36:04;;;;;;;8.77;4.20;;;14.40;99.90;;;;;;5092449;28;20428;-55
2022/10/17 06:38:30;;;;;;;8.25;3.85;;;14.90;99.90;;;;;;5091575;28;20538;-55
2022/10/17 06:41:07;;;;;;;9.30;3.93;;;15.50;1.00;;;;;;5092370;28;20855;-55
2022/10/17 06:43:36;;;;;;;10.73;4.35;;;16.10;1.00;;;;;;5091983;28;20435;-55
2022/10/17 06:46:03;;;;;;;10.48;4.28;;;16.70;99.90;;;;;;5092440;28;20410;-55
2022/10/17 06:48:28;;;;;;;9.43;4.00;;;17.20;99.90;;;;;;5091577;28;20417;-56
2022/10/17 06:50:59;;;;;;;9.17;3.53;;;17.80;99.90;;;;;;5091914;28;20402;-56
2022/10/17 06:53:27;;;;;;;10.43;3.47;;;18.70;99.90;;;;;;5091853;28;20408;-56
2022/10/17 06:55:54;;;;;;;8.02;4.03;;;19.40;1.00;;;;;;5092546;28;20506;-56
2022/10/17 06:58:19;;;;;;;12.90;4.00;;;20.30;1.00;;;;;;5091478;28;20940;-56
2022/10/17 07:00:45;;;;;;;8.00;3.60;;;;;;;;;;5092411;28;20421;-56
2022/10/17 07:03:11;;;;;;;8.43;3.20;;;21.80;1.00;;;;;;5092200;28;20374;-56
2022/10/17 07:05:37;;;;;;;11.43;3.80;;;23.60;1.00;;;;;;5074079;28;20870;-57
2022/10/17 07:08:06;;;;;;;8.67;3.53;;;23.30;1.00;;;;;;5091643;28;20927;-56
2022/10/17 07:10:37;;;;;;;12.53;4.30;;;24.20;1.00;;;;;;5089719;28;20378;-56
2022/10/17 07:13:03;;;;;;;11.65;6.20;;;24.80;1.00;;;;;;5091697;28;20390;-57
2022/10/17 07:15:28;;;;;;;10.10;6.65;;;24.90;1.00;;;;;;5091241;28;20593;-57
2022/10/17 07:17:54;;;;;;;9.13;4.70;;;25.90;99.90;;;;;;5091529;28;20482;-57
2022/10/17 07:20:20;;;;;;;11.53;10.23;;;26.80;99.90;;;;;;5090897;28;20374;-58
2022/10/17 07:22:45;;;;;;;7.90;4.20;;;27.50;99.90;;;;;;5091868;28;20386;-58
2022/10/17 07:25:11;;;;;;;10.57;3.45;;;27.90;99.90;;;;;;5091829;28;20370;-58
2022/10/17 07:27:36;;;;;;;9.27;3.40;;;28.60;99.90;;;;;;5091062;28;20410;-57
2022/10/17 07:30:02;;;;;;;8.60;3.40;;;28.40;99.90;;;;;;5091582;28;20847;-58
2022/10/17 07:32:28;;;;;;;9.40;3.40;;;28.50;99.90;;;;;;5090613;28;20402;-57
2022/10/17 07:34:53;;;;;;;9.60;3.70;;;28.60;99.90;;;;;;5091628;28;20431;-57
2022/10/17 07:37:19;;;;;;;7.70;3.30;;;28.60;99.90;;;;;;5090540;28;20382;-58
2022/10/17 07:39:45;;;;;;;8.40;3.80;;;28.70;99.90;;;;;;5091895;28;20382;-57
2022/10/17 07:42:10;;;;;;;9.17;3.80;;;28.80;99.90;;;;;;5091515;28;20719;-58
2022/10/17 07:44:36;;;;;;;10.27;4.38;;;28.30;99.90;;;;;;5091261;28;20369;-57
2022/10/17 07:47:01;;;;;;;10.13;3.90;;;28.20;99.90;;;;;;5091365;28;20401;-57
2022/10/17 07:49:27;;;;;;;9.60;3.78;;;28.30;99.90;;;;;;5090724;28;20378;-58
2022/10/17 07:51:52;;;;;;;10.20;4.00;;;28.70;99.90;;;;;;5091276;28;20378;-57
2022/10/17 07:54:18;;;;;;;9.83;4.03;;;29.40;99.90;;;;;;5090703;28;20759;-57
2022/10/17 07:56:49;;;;;;;7.80;3.37;;;29.90;99.90;;;;;;5091083;28;20469;-58
2022/10/17 07:59:17;;;;;;;8.90;3.65;;;30.50;99.90;;;;;;5090954;28;20704;-58
2022/10/17 08:01:43;;;;;;;10.68;3.97;;;29.60;99.90;;;;;;5091247;28;20386;-57
2022/10/17 08:04:09;;;;;;;10.38;3.90;;;28.90;99.90;;;;;;5091487;28;20390;-57
2022/10/17 08:06:34;;;;;;;9.25;3.72;;;29.30;99.90;;;;;;5090426;28;20432;-57
2022/10/17 08:09:00;;;;;;;9.47;3.80;;;29.40;99.90;;;;;;5091053;28;20370;-57
2022/10/17 08:11:26;;;;;;;9.45;3.90;;;28.90;99.90;;;;;;5090168;28;20856;-58
2022/10/17 08:13:52;;;;;;;10.90;4.15;;;29.60;99.90;;;;;;5090730;28;20432;-58
2022/10/17 08:16:18;;;;;;;9.57;4.10;;;30.00;99.90;;;;;;5090304;28;20890;-58
2022/10/17 08:18:43;;;;;;;8.23;4.50;;;29.80;99.90;;;;;;5090974;28;20408;-57
2022/10/17 08:21:11;;;;;;;13.10;4.17;;;29.80;99.90;;;;;;5090461;28;20879;-57
2022/10/17 08:23:37;;;;;;;11.57;3.70;;;29.50;99.90;;;;;;5089543;28;20779;-57
2022/10/17 08:26:05;;;;;;;9.67;3.97;;;30.20;99.90;;;;;;5090353;28;20500;-58
2022/10/17 08:28:34;;;;;;;10.30;4.00;;;29.80;99.90;;;;;;5089963;28;20441;-58
2022/10/17 08:31:09;;;;;;;10.85;3.80;;;29.60;99.90;;;;;;5090360;28;20398;-58
2022/10/17 08:33:34;;;;;;;9.82;3.90;;;30.00;99.90;;;;;;5089888;28;20489;-58
2022/10/17 08:36:01;;;;;;;8.82;3.50;;;29.40;99.90;;;;;;5090225;28;20382;-58
2022/10/17 08:38:28;;;;;;;9.95;3.90;;;29.60;99.90;;;;;;5089144;28;20379;-58
2022/10/17 08:40:58;;;;;;;9.40;3.58;;;29.60;99.90;;;;;;5090407;28;20854;-57
2022/10/17 08:43:54;;;;;;;10.40;3.83;;;29.90;99.90;;;;;;5089718;28;20719;-58
2022/10/17 08:46:20;;;;;;;9.70;3.40;;;30.00;99.90;;;;;;5089800;28;20424;-58
2022/10/17 08:48:48;;;;;;;9.47;3.80;;;29.90;99.90;;;;;;5090301;28;20385;-58
2022/10/17 08:51:21;;;;;;;8.82;3.75;;;30.10;99.90;;;;;;5089502;28;20743;-59
2022/10/17 08:54:15;;;;;;;9.48;3.90;;;29.90;99.90;;;;;;5090477;28;20739;-58
2022/10/17 08:56:47;;;;;;;8.95;3.85;;;29.80;99.90;;;;;;5089885;28;20789;-58
2022/10/17 08:59:19;;;;;;;9.25;3.80;;;29.70;99.90;;;;;;5089991;28;20413;-57
2022/10/17 09:01:49;;;;;;;10.07;4.00;;;29.70;99.90;;;;;;5090356;28;20413;-58
2022/10/17 09:04:27;;;;;;;11.10;4.10;;;30.60;99.90;;;;;;5089831;28;20382;-58
2022/10/17 09:07:10;;;;;;;10.02;3.70;;;31.30;99.90;;;;;;5089828;28;20508;-58
2022/10/17 09:10:08;;;;;;;12.68;4.00;;;31.60;99.90;;;;;;5089879;28;20384;-57
2022/10/17 09:12:46;;;;;;;9.30;4.10;;;30.70;99.90;;;;;;5088734;28;21105;-57
2022/10/17 09:15:24;;;;;;;9.80;4.40;;;29.30;99.90;;;;;;5071583;28;20758;-58
2022/10/17 09:17:52;;;;;;;16.13;3.80;;;29.20;99.90;;;;;;5089747;28;20378;-57
2022/10/17 09:20:25;;;;;;;8.43;3.80;;;29.50;99.90;;;;;;5089200;28;20370;-59
2022/10/17 09:23:20;;;;;;;10.77;4.07;;;29.60;99.90;;;;;;5089627;28;20388;-58
2022/10/17 09:25:49;;;;;;;10.73;3.65;;;29.60;99.90;;;;;;5089528;28;20418;-57
2022/10/17 09:28:20;;;;;;;11.77;4.00;;;29.80;99.90;;;;;;5089186;28;20378;-59
2022/10/17 09:31:00;;;;;;;8.85;3.70;;;29.80;99.90;;;;;;5090174;28;20377;-57
2022/10/17 09:33:48;;;;;;;8.43;3.40;;;29.10;99.90;;;;;;5070791;28;20426;-57
2022/10/17 09:36:15;;;;;;;11.25;6.40;;;28.30;99.90;;;;;;5093319;28;20420;-58
2022/10/17 09:38:53;;;;;;;11.77;6.32;;;28.00;99.90;;;;;;5093172;28;20390;-57
2022/10/17 09:41:31;;;;;;;10.80;5.80;;;27.60;99.90;;;;;;5092821;28;20381;-58
2022/10/17 09:43:58;;;;;;;8.57;5.50;;;27.40;99.90;;;;;;5094071;28;20373;-57
2022/10/17 09:46:32;;;;;;;11.85;4.95;;;27.70;99.90;;;;;;5093380;28;20398;-57
2022/10/17 09:49:06;;;;;;;10.65;5.25;;;28.00;99.90;;;;;;5093819;28;20378;-57
2022/10/17 09:51:31;;;;;;;8.15;5.25;;;28.00;99.90;;;;;;5092767;28;20462;-57
2022/10/17 09:54:02;;;;;;;9.10;5.37;;;27.90;99.90;;;;;;5093558;28;20461;-56
2022/10/17 09:56:28;;;;;;;11.13;5.00;;;28.30;99.90;;;;;;5092546;28;20890;-57
2022/10/17 09:58:57;;;;;;;9.13;4.40;;;28.90;99.90;;;;;;5093140;28;20405;-59
2022/10/17 10:01:29;;;;;;;8.37;4.47;;;29.60;99.90;;;;;;5092573;28;20430;-59
2022/10/17 10:04:08;;;;;;;8.47;3.07;;;30.00;99.90;;;;;;5093065;28;20390;-57
2022/10/17 10:06:34;;;;;;;9.60;3.30;;;30.30;99.90;;;;;;5091951;28;20410;-57
2022/10/17 10:09:04;;;;;;;7.53;3.08;;;30.60;99.90;;;;;;5093512;28;20378;-57
2022/10/17 10:11:55;;;;;;;9.50;3.08;;;30.50;99.90;;;;;;5092332;28;20723;-57
2022/10/17 10:14:35;;;;;;;10.35;2.90;;;30.20;99.90;;;;;;5092286;28;20382;-57
2022/10/17 10:17:02;;;;;;;9.18;3.70;;;29.80;99.90;;;;;;5092902;28;20381;-56
2022/10/17 10:19:36;;;;;;;7.60;3.25;;;29.30;99.90;;;;;;5092602;28;20485;-56
2022/10/17 10:22:05;;;;;;;9.07;3.00;;;29.20;99.90;;;;;;5093035;28;20378;-57
2022/10/17 10:24:31;;;;;;;8.73;3.15;;;29.40;99.90;;;;;;5092314;28;20390;-57
2022/10/17 10:27:03;;;;;;;7.85;3.30;;;29.80;99.90;;;;;;5092430;28;20883;-56
2022/10/17 10:29:33;;;;;;;9.10;3.17;;;29.60;99.90;;;;;;5092152;28;20405;-56
2022/10/17 10:32:19;;;;;;;8.73;3.08;;;29.70;99.90;;;;;;5092335;28;20797;-56
2022/10/17 10:34:51;;;;;;;10.05;3.58;;;30.10;99.90;;;;;;5092579;28;20385;-56
2022/10/17 10:37:27;;;;;;;9.07;3.22;;;30.40;99.90;;;;;;5092669;28;20385;-58
2022/10/17 10:39:56;;;;;;;8.20;2.93;;;30.40;99.90;;;;;;5092311;28;20866;-57
2022/10/17 10:42:23;;;;;;;7.90;2.90;;;30.70;99.90;;;;;;5091691;28;20842;-57
2022/10/17 10:44:50;;;;;;;8.20;3.50;;;30.70;99.90;;;;;;5092045;28;20382;-57
2022/10/17 10:47:22;;;;;;;9.43;3.10;;;31.00;99.90;;;;;;5092803;28;20409;-59
2022/10/17 10:49:51;;;;;;;7.55;2.80;;;31.50;99.90;;;;;;5092329;28;20397;-57
2022/10/17 10:52:28;;;;;;;10.55;2.90;;;31.40;99.90;;;;;;5091963;28;20382;-59
2022/10/17 10:55:13;;;;;;;8.20;3.00;;;31.90;99.90;;;;;;5092686;28;20381;-58
2022/10/17 10:57:40;;;;;;;9.50;3.45;;;32.30;99.90;;;;;;5091707;28;20465;-57
2022/10/17 11:00:17;;;;;;;8.03;2.90;;;32.30;99.90;;;;;;5074138;28;20443;-57
2022/10/17 11:02:53;;;;;;;7.90;2.47;;;32.40;99.90;;;;;;5091522;28;20408;-57
2022/10/17 11:05:22;;;;;;;8.23;2.87;;;32.00;99.90;;;;;;5091582;28;20410;-57
2022/10/17 11:08:08;;;;;;;7.07;2.50;;;31.90;99.90;;;;;;5092043;28;20386;-57
2022/10/17 11:10:55;;;;;;;8.50;3.03;;;31.80;99.90;;;;;;5089840;28;20744;-57
2022/10/17 11:13:29;;;;;;;8.47;2.90;;;31.30;99.90;;;;;;5090939;28;21006;-57
2022/10/17 11:16:22;;;;;;;7.40;2.70;;;30.60;99.90;;;;;;5091555;28;20412;-57
2022/10/17 11:18:58;;;;;;;10.32;2.50;;;30.40;99.90;;;;;;5091269;28;20386;-57
2022/10/17 11:21:37;;;;;;;7.30;2.90;;;29.50;99.90;;;;;;5082333;28;20400;-58
2022/10/17 11:24:26;;;;;;;8.27;3.58;;;29.10;99.90;;;;;;5074522;28;20918;-57
2022/10/17 11:27:04;;;;;;;7.60;3.17;;;28.90;99.90;;;;;;5071643;28;20414;-58
2022/10/17 11:29:33;;;;;;;8.93;2.60;;;28.80;99.90;;;;;;5070538;28;20491;-57
2022/10/17 11:32:12;;;;;;;8.65;1.80;;;28.80;99.90;;;;;;5071719;28;20433;-58
2022/10/17 11:34:52;;;;;;;6.10;2.10;;;28.70;99.90;;;;;;5072109;28;20545;-58
2022/10/17 11:37:22;;;;;;;9.30;4.10;;;28.30;99.90;;;;;;5088619;28;20397;-58
2022/10/17 11:39:56;;;;;;;7.40;4.18;;;28.20;99.90;;;;;;5088512;28;20474;-57
2022/10/17 11:42:34;;;;;;;6.75;4.20;;;28.20;99.90;;;;;;5090381;28;20370;-57
2022/10/17 11:45:16;;;;;;;7.50;4.00;;;28.10;99.90;;;;;;5084951;28;20863;-57
2022/10/17 11:47:48;;;;;;;7.82;3.90;;;28.20;99.90;;;;;;5088996;28;20895;-57
2022/10/17 11:50:23;;;;;;;7.78;3.83;;;28.10;99.90;;;;;;5071404;28;20387;-57
2022/10/17 11:52:59;;;;;;;9.13;3.90;;;28.20;99.90;;;;;;5078451;28;20535;-58
2022/10/17 11:55:30;;;;;;;8.38;3.72;;;28.10;99.90;;;;;;5090650;28;20465;-57
2022/10/17 11:58:17;;;;;;;6.97;3.90;;;28.10;99.90;;;;;;5072149;28;20406;-58
2022/10/17 12:01:01;;;;;;;7.80;4.00;;;28.00;99.90;;;;;;5088534;28;20374;-58
2022/10/17 12:03:33;;;;;;;8.80;3.90;;;28.10;99.90;;;;;;5089322;28;20383;-58
2022/10/17 12:06:08;;;;;;;7.05;3.53;;;28.20;99.90;;;;;;5088487;28;20394;-58
2022/10/17 12:08:56;;;;;;;8.40;3.92;;;28.30;99.90;;;;;;5087384;28;21056;-58
2022/10/17 12:11:40;;;;;;;10.27;4.18;;;28.40;99.90;;;;;;5086585;28;20398;-58
2022/10/17 12:14:34;;;;;;;7.93;4.20;;;28.40;99.90;;;;;;5088012;28;20381;-58
2022/10/17 12:17:00;;;;;;;7.68;4.32;;;28.20;99.90;;;;;;5088318;28;20785;-57
2022/10/17 12:19:31;;;;;;;7.03;3.83;;;28.10;99.90;;;;;;5090621;28;20408;-58
2022/10/17 12:22:18;;;;;;;7.40;3.80;;;28.20;99.90;;;;;;5088249;28;20402;-57
2022/10/17 12:24:56;;;;;;;8.70;4.18;;;28.30;99.90;;;;;;5090166;28;20378;-58
2022/10/17 12:27:38;;;;;;;10.60;4.40;;;28.30;99.90;;;;;;5087341;28;20402;-57
2022/10/17 12:30:15;;;;;;;9.50;3.75;;;28.40;99.90;;;;;;5083211;28;20417;-59
2022/10/17 12:32:54;;;;;;;8.77;3.47;;;28.40;99.90;;;;;;5088600;28;20785;-59
2022/10/17 12:35:22;;;;;;;8.48;4.10;;;28.50;99.90;;;;;;5088924;28;20415;-61
2022/10/17 12:37:47;;;;;;;8.38;3.75;;;28.40;99.90;;;;;;5079531;28;20391;-58
2022/10/17 12:40:32;;;;;;;8.60;3.60;;;28.50;99.90;;;;;;5086854;28;20799;-57
2022/10/17 12:42:58;;;;;;;9.18;4.28;;;28.60;99.90;;;;;;5085365;28;20393;-57
2022/10/17 12:45:52;;;;;;;8.00;3.77;;;28.60;99.90;;;;;;5088807;28;20886;-58
2022/10/17 12:48:33;;;;;;;8.60;3.80;;;28.70;99.90;;;;;;5088141;28;20402;-58
2022/10/17 12:51:09;;;;;;;7.15;3.88;;;28.40;99.90;;;;;;5066910;28;20827;-59
2022/10/17 12:53:47;;;;;;;10.25;4.80;;;28.30;99.90;;;;;;5069203;28;20407;-59
2022/10/17 12:56:18;;;;;;;8.38;4.20;;;28.20;99.90;;;;;;5086009;28;20454;-60
2022/10/17 12:58:49;;;;;;;7.18;3.90;;;28.00;99.90;;;;;;5086861;28;20390;-60
2022/10/17 13:01:30;;;;;;;6.70;3.75;;;27.70;99.90;;;;;;5083540;28;20409;-60
2022/10/17 13:03:57;;;;;;;6.40;3.42;;;27.50;99.90;;;;;;5086972;28;20594;-60
2022/10/17 13:06:28;;;;;;;10.98;3.60;;;27.60;99.90;;;;;;5088675;28;20470;-60